Time;durP1;ratioP1;P1;durP2;ratioP2;P2;SDS_P1;SDS_P2;PMS_P1;PMS_P2;Temp;Humidity;BMP_temperature;BMP_pressure;BME280_temperature;BME280_humidity;BME280_pressure;Samples;Min_cycle;Max_cycle;Signal;HPM_P1;HPM_P2
2022/05/28 00:00:56;;;;;;;20.90;4.85;;;13.10;99.90;;;;;;4993955;28;20442;-54
2022/05/28 00:03:23;;;;;;;15.52;3.95;;;13.30;99.90;;;;;;4994041;28;20507;-54
2022/05/28 00:05:49;;;;;;;20.40;4.88;;;13.20;99.90;;;;;;4993639;28;20078;-55
2022/05/28 00:08:15;;;;;;;17.58;4.80;;;13.20;99.90;;;;;;4994054;28;20033;-54
2022/05/28 00:10:41;;;;;;;17.42;4.20;;;12.90;99.90;;;;;;4993923;28;20034;-55
2022/05/28 00:13:07;;;;;;;12.65;4.10;;;12.90;99.90;;;;;;5008682;28;20050;-54
2022/05/28 00:15:33;;;;;;;10.30;4.10;;;12.90;99.90;;;;;;4993757;28;20034;-53
2022/05/28 00:17:59;;;;;;;20.98;4.70;;;12.70;99.90;;;;;;4994107;28;20409;-54
2022/05/28 00:20:26;;;;;;;14.02;4.50;;;12.80;99.90;;;;;;4993843;28;20026;-54
2022/05/28 00:22:51;;;;;;;11.10;4.18;;;12.80;99.90;;;;;;4994009;28;20022;-53
2022/05/28 00:25:18;;;;;;;19.50;4.70;;;12.90;99.90;;;;;;4993201;28;20391;-54
2022/05/28 00:27:44;;;;;;;12.65;4.85;;;12.90;99.90;;;;;;4993335;28;20062;-54
2022/05/28 00:30:15;;;;;;;19.73;4.85;;;12.90;99.90;;;;;;4993888;28;20495;-54
2022/05/28 00:32:42;;;;;;;16.00;4.88;;;13.00;99.90;;;;;;4991880;28;20030;-55
2022/05/28 00:35:15;;;;;;;15.82;4.40;;;13.00;99.90;;;;;;4993354;28;20607;-54
2022/05/28 00:37:42;;;;;;;15.43;4.35;;;13.00;99.90;;;;;;4993546;28;20038;-58
2022/05/28 00:40:11;;;;;;;13.77;3.60;;;12.70;99.90;;;;;;4993569;28;20069;-54
2022/05/28 00:42:36;;;;;;;15.25;4.60;;;12.40;99.90;;;;;;4993261;28;20030;-54
2022/05/28 00:45:03;;;;;;;16.02;4.40;;;12.30;99.90;;;;;;4993003;28;20019;-53
2022/05/28 00:47:30;;;;;;;15.23;4.28;;;12.30;99.90;;;;;;4993171;28;20035;-54
2022/05/28 00:49:55;;;;;;;17.35;4.55;;;12.60;99.90;;;;;;4993363;28;20014;-54
2022/05/28 00:52:24;;;;;;;15.35;4.45;;;12.50;99.90;;;;;;4993029;28;20467;-53
2022/05/28 00:54:50;;;;;;;15.52;4.28;;;12.40;99.90;;;;;;4992902;28;20078;-54
2022/05/28 00:57:17;;;;;;;11.13;4.15;;;12.40;99.90;;;;;;4992840;28;20448;-54
2022/05/28 00:59:44;;;;;;;13.82;4.50;;;12.20;99.90;;;;;;4993033;28;20046;-54
2022/05/28 01:02:22;;;;;;;15.30;4.30;;;12.20;99.90;;;;;;4993074;28;20456;-54
2022/05/28 01:04:58;;;;;;;17.23;4.68;;;12.30;99.90;;;;;;4992731;28;20022;-53
2022/05/28 01:07:28;;;;;;;16.55;3.92;;;12.40;99.90;;;;;;4992681;28;20030;-53
2022/05/28 01:10:06;;;;;;;12.77;4.00;;;12.40;99.90;;;;;;4993336;28;20391;-54
2022/05/28 01:13:16;;;;;;;14.48;4.18;;;12.50;99.90;;;;;;4992993;28;20029;-54
2022/05/28 01:16:07;;;;;;;16.67;4.30;;;12.50;99.90;;;;;;4993034;28;20085;-54
2022/05/28 01:18:38;;;;;;;14.98;4.35;;;12.50;99.90;;;;;;4992934;28;20029;-54
2022/05/28 01:21:15;;;;;;;12.75;4.43;;;12.70;99.90;;;;;;4993029;28;20030;-54
2022/05/28 01:23:40;;;;;;;16.27;4.38;;;12.60;99.90;;;;;;4992841;28;20030;-54
2022/05/28 01:26:43;;;;;;;14.52;5.03;;;12.40;99.90;;;;;;4992868;28;20034;-58
2022/05/28 01:29:11;;;;;;;;;;;12.30;99.90;;;;;;4993290;28;20076;-53
2022/05/28 01:31:37;;;;;;;15.50;3.88;;;12.10;99.90;;;;;;4992896;28;19910;-58
2022/05/28 01:34:06;;;;;;;15.82;4.50;;;12.10;99.90;;;;;;4993081;28;20483;-54
2022/05/28 01:36:33;;;;;;;15.45;4.75;;;12.40;99.90;;;;;;4992183;28;20058;-53
2022/05/28 01:38:59;;;;;;;19.60;4.43;;;12.30;99.90;;;;;;4992092;28;20022;-54
2022/05/28 01:41:29;;;;;;;13.32;3.97;;;12.30;99.90;;;;;;4993240;28;20025;-53
2022/05/28 01:43:56;;;;;;;12.10;3.70;;;12.30;99.90;;;;;;4992491;28;20402;-54
2022/05/28 01:46:22;;;;;;;14.43;3.92;;;12.40;99.90;;;;;;4992315;28;20018;-53
2022/05/28 01:48:53;;;;;;;18.55;4.07;;;12.50;99.90;;;;;;4992542;28;20022;-54
2022/05/28 01:51:20;;;;;;;13.50;3.63;;;12.50;99.90;;;;;;4992480;28;20538;-53
2022/05/28 01:56:31;;;;;;;10.20;3.13;;;12.70;99.90;;;;;;4992002;28;20037;-53
2022/05/28 01:58:57;;;;;;;19.35;3.90;;;12.80;99.90;;;;;;4992512;28;20023;-55
2022/05/28 02:01:23;;;;;;;13.18;3.97;;;13.00;99.90;;;;;;4992692;28;20384;-54
2022/05/28 02:03:51;;;;;;;12.00;3.65;;;13.00;99.90;;;;;;4992213;28;20118;-54
2022/05/28 02:06:17;;;;;;;15.50;3.63;;;13.10;99.90;;;;;;4992468;28;20034;-53
2022/05/28 02:08:46;;;;;;;14.00;4.07;;;13.20;99.90;;;;;;4992165;28;20057;-54
2022/05/28 02:11:19;;;;;;;14.52;3.35;;;13.20;99.90;;;;;;4992308;28;20019;-54
2022/05/28 02:14:18;;;;;;;13.77;4.03;;;13.10;99.90;;;;;;4991884;28;20466;-53
2022/05/28 02:16:54;;;;;;;13.45;3.80;;;13.10;99.90;;;;;;4990821;28;20070;-53
2022/05/28 02:19:28;;;;;;;16.17;3.97;;;13.00;99.90;;;;;;4992546;28;20018;-54
2022/05/28 02:22:08;;;;;;;14.77;4.05;;;12.90;99.90;;;;;;4992508;28;20475;-55
2022/05/28 02:24:43;;;;;;;12.68;4.03;;;12.60;99.90;;;;;;4992328;28;20023;-54
2022/05/28 02:27:14;;;;;;;17.15;4.40;;;12.60;99.90;;;;;;4992147;28;20044;-54
2022/05/28 02:29:40;;;;;;;18.48;4.28;;;12.50;99.90;;;;;;5007268;28;20026;-54
2022/05/28 02:32:23;;;;;;;14.93;4.57;;;12.50;99.90;;;;;;4992280;28;20101;-53
2022/05/28 02:34:50;;;;;;;15.80;4.53;;;12.50;99.90;;;;;;4992432;28;20100;-53
2022/05/28 02:37:19;;;;;;;12.30;4.70;;;12.50;99.90;;;;;;4992098;28;20498;-54
2022/05/28 02:39:46;;;;;;;18.25;4.72;;;12.60;99.90;;;;;;4991108;28;20026;-55
2022/05/28 02:42:12;;;;;;;18.45;5.20;;;12.50;99.90;;;;;;4991885;28;20055;-54
2022/05/28 02:44:38;;;;;;;14.85;4.47;;;12.50;99.90;;;;;;4992337;28;20022;-53
2022/05/28 02:47:04;;;;;;;16.02;4.68;;;12.50;99.90;;;;;;4991792;28;20691;-53
2022/05/28 02:49:31;;;;;;;16.98;4.60;;;12.50;99.90;;;;;;4991941;28;20073;-53
2022/05/28 02:51:59;;;;;;;20.83;5.22;;;12.50;99.90;;;;;;4994147;28;20109;-53
2022/05/28 02:54:24;;;;;;;15.38;4.85;;;12.50;99.90;;;;;;4995196;28;20022;-53
2022/05/28 02:56:50;;;;;;;15.27;4.65;;;12.50;99.90;;;;;;4995011;28;20030;-53
2022/05/28 02:59:16;;;;;;;21.08;5.10;;;12.50;99.90;;;;;;4995169;28;20089;-53
2022/05/28 03:01:41;;;;;;;15.02;5.30;;;12.40;99.90;;;;;;4995471;28;20026;-54
2022/05/28 03:04:08;;;;;;;16.30;5.32;;;12.40;99.90;;;;;;4994920;28;20076;-54
2022/05/28 03:06:38;;;;;;;20.60;5.82;;;12.20;99.90;;;;;;4994801;28;20034;-54
2022/05/28 03:09:06;;;;;;;17.30;5.10;;;12.10;99.90;;;;;;4995190;28;20503;-54
2022/05/28 03:11:32;;;;;;;22.27;5.97;;;12.00;99.90;;;;;;4995513;28;20487;-54
2022/05/28 03:13:57;;;;;;;24.13;5.78;;;12.00;99.90;;;;;;4994994;28;20093;-53
2022/05/28 03:16:23;;;;;;;14.35;5.53;;;11.90;99.90;;;;;;4994793;28;20687;-53
2022/05/28 03:18:49;;;;;;;22.27;5.15;;;11.90;99.90;;;;;;4994576;28;20030;-53
2022/05/28 03:21:15;;;;;;;17.80;5.82;;;11.90;99.90;;;;;;4994835;28;20027;-54
2022/05/28 03:23:41;;;;;;;17.95;5.43;;;11.90;99.90;;;;;;4994750;28;20030;-54
2022/05/28 03:26:13;;;;;;;18.15;6.85;;;12.00;99.90;;;;;;4994603;28;20019;-53
2022/05/28 03:28:39;;;;;;;19.63;5.63;;;11.90;99.90;;;;;;4994705;28;20065;-53
2022/05/28 03:31:04;;;;;;;24.38;7.03;;;12.10;99.90;;;;;;4994715;28;20061;-53
2022/05/28 03:33:30;;;;;;;18.70;7.20;;;12.10;99.90;;;;;;4994783;28;20030;-53
2022/05/28 03:35:55;;;;;;;23.63;6.93;;;12.10;99.90;;;;;;4994460;28;20440;-53
2022/05/28 03:38:21;;;;;;;25.30;6.95;;;11.90;99.90;;;;;;4994760;28;20026;-54
2022/05/28 03:40:46;;;;;;;25.70;8.02;;;11.90;99.90;;;;;;4993350;28;20023;-56
2022/05/28 03:43:12;;;;;;;25.75;8.07;;;11.90;99.90;;;;;;4994474;28;20404;-54
2022/05/28 03:45:38;;;;;;;23.92;7.85;;;12.00;99.90;;;;;;4994788;28;20030;-54
2022/05/28 03:48:06;;;;;;;21.58;7.78;;;11.90;99.90;;;;;;4993602;28;20037;-54
2022/05/28 03:50:31;;;;;;;25.83;7.30;;;11.70;99.90;;;;;;4992924;28;20433;-54
2022/05/28 03:52:57;;;;;;;24.67;8.10;;;11.70;99.90;;;;;;4994292;28;20034;-53
2022/05/28 03:55:22;;;;;;;22.15;8.18;;;11.70;99.90;;;;;;4993985;28;20371;-53
2022/05/28 03:57:48;;;;;;;23.70;7.28;;;11.70;99.90;;;;;;4994838;28;20030;-54
2022/05/28 04:00:15;;;;;;;15.65;6.72;;;11.90;99.90;;;;;;4994823;28;20053;-53
2022/05/28 04:02:41;;;;;;;23.08;7.18;;;11.90;99.90;;;;;;4993558;28;20015;-53
2022/05/28 04:05:07;;;;;;;25.90;7.95;;;11.80;99.90;;;;;;4994268;28;20037;-52
2022/05/28 04:07:33;;;;;;;17.35;7.28;;;11.70;99.90;;;;;;4993808;28;20046;-53
2022/05/28 04:09:59;;;;;;;20.58;7.30;;;11.70;99.90;;;;;;4994168;28;20037;-52
2022/05/28 04:12:25;;;;;;;23.70;7.95;;;11.70;99.90;;;;;;4994183;28;20069;-55
2022/05/28 04:14:50;;;;;;;23.58;7.90;;;11.60;99.90;;;;;;4993833;28;20054;-55
2022/05/28 04:17:16;;;;;;;27.48;8.40;;;11.90;99.90;;;;;;4993971;28;20106;-54
2022/05/28 04:19:42;;;;;;;20.48;8.27;;;12.00;99.90;;;;;;4994073;28;20072;-53
2022/05/28 04:22:08;;;;;;;21.83;7.95;;;12.10;99.90;;;;;;4993933;28;20084;-53
2022/05/28 04:24:34;;;;;;;23.88;8.82;;;12.00;99.90;;;;;;4994205;28;20049;-53
2022/05/28 04:26:59;;;;;;;21.55;8.10;;;12.00;99.90;;;;;;4993859;28;20027;-53
2022/05/28 04:29:25;;;;;;;15.68;7.72;;;12.10;99.90;;;;;;4993937;28;20035;-54
2022/05/28 04:31:51;;;;;;;18.90;8.13;;;12.10;99.90;;;;;;4993850;28;20578;-53
2022/05/28 04:34:16;;;;;;;19.83;7.70;;;12.10;99.90;;;;;;4993581;28;20030;-54
2022/05/28 04:36:42;;;;;;;19.60;7.60;;;12.10;99.90;;;;;;4993580;28;20041;-59
2022/05/28 04:39:08;;;;;;;25.77;7.50;;;12.00;99.90;;;;;;4993626;28;20022;-54
2022/05/28 04:41:33;;;;;;;23.17;7.47;;;12.10;99.90;;;;;;4993942;28;20072;-54
2022/05/28 04:43:59;;;;;;;17.13;7.53;;;12.10;99.90;;;;;;4993579;28;20073;-54
2022/05/28 04:46:25;;;;;;;24.95;7.65;;;12.10;99.90;;;;;;4993727;28;20049;-54
2022/05/28 04:48:50;;;;;;;24.02;7.25;;;12.10;99.90;;;;;;4993052;28;20042;-53
2022/05/28 04:51:16;;;;;;;21.98;7.68;;;12.10;99.90;;;;;;4993172;28;20085;-53
2022/05/28 04:53:42;;;;;;;17.98;7.05;;;12.20;99.90;;;;;;4992778;28;20034;-54
2022/05/28 04:56:07;;;;;;;20.95;8.43;;;12.30;99.90;;;;;;4991582;28;20030;-54
2022/05/28 04:58:33;;;;;;;25.98;7.97;;;12.30;99.90;;;;;;4992911;28;20029;-53
2022/05/28 05:01:00;;;;;;;22.42;7.82;;;12.40;99.90;;;;;;4993058;28;20026;-54
2022/05/28 05:03:26;;;;;;;19.98;7.85;;;12.50;99.90;;;;;;4992819;28;20207;-54
2022/05/28 05:05:51;;;;;;;21.52;7.85;;;12.50;99.90;;;;;;4992597;28;20064;-54
2022/05/28 05:08:17;;;;;;;20.15;6.97;;;12.50;99.90;;;;;;4992942;28;20022;-53
2022/05/28 05:10:44;;;;;;;18.45;7.40;;;12.60;99.90;;;;;;4992865;28;20072;-54
2022/05/28 05:13:10;;;;;;;17.65;7.00;;;12.60;99.90;;;;;;4992262;28;20057;-53
2022/05/28 05:15:38;;;;;;;18.92;6.70;;;12.70;99.90;;;;;;4992625;28;20030;-53
2022/05/28 05:18:04;;;;;;;18.95;5.82;;;12.80;99.90;;;;;;4992680;28;20451;-53
2022/05/28 05:20:29;;;;;;;17.48;6.03;;;12.90;99.90;;;;;;4992525;28;20058;-53
2022/05/28 05:22:56;;;;;;;16.20;5.75;;;12.80;99.90;;;;;;4991720;28;20472;-53
2022/05/28 05:25:22;;;;;;;18.30;5.78;;;12.90;99.90;;;;;;4991970;28;20014;-54
2022/05/28 05:27:48;;;;;;;14.60;5.88;;;13.10;99.90;;;;;;4991748;28;20027;-53
2022/05/28 05:30:14;;;;;;;14.10;5.43;;;13.20;99.90;;;;;;4991992;28;20538;-53
2022/05/28 05:32:39;;;;;;;14.05;5.35;;;13.30;99.90;;;;;;4992055;28;20038;-53
2022/05/28 05:35:06;;;;;;;18.23;5.47;;;13.20;99.90;;;;;;4991685;28;20030;-53
2022/05/28 05:37:31;;;;;;;19.00;4.97;;;13.30;99.90;;;;;;4991453;28;20034;-53
2022/05/28 05:39:57;;;;;;;11.63;4.93;;;13.30;99.90;;;;;;4991885;28;20382;-53
2022/05/28 05:42:23;;;;;;;13.23;4.72;;;13.30;99.90;;;;;;4991659;28;20022;-53
2022/05/28 05:44:48;;;;;;;16.35;4.93;;;13.40;99.90;;;;;;4991714;28;20065;-53
2022/05/28 05:47:14;;;;;;;14.27;4.97;;;13.50;99.90;;;;;;4991877;28;20068;-53
2022/05/28 05:49:39;;;;;;;19.40;5.78;;;13.60;99.90;;;;;;4991815;28;20491;-53
2022/05/28 05:52:05;;;;;;;13.35;4.38;;;13.60;99.90;;;;;;4992076;28;20065;-53
2022/05/28 05:54:31;;;;;;;12.90;4.68;;;13.70;99.90;;;;;;4991437;28;20164;-53
2022/05/28 05:56:57;;;;;;;15.98;4.43;;;13.70;99.90;;;;;;4991484;28;20499;-53
2022/05/28 05:59:23;;;;;;;12.95;4.20;;;13.80;99.90;;;;;;4991556;28;20023;-53
2022/05/28 06:01:49;;;;;;;14.38;4.45;;;13.80;99.90;;;;;;4991726;28;20022;-53
2022/05/28 06:04:15;;;;;;;19.98;5.00;;;13.90;99.90;;;;;;4991350;28;20519;-53
2022/05/28 06:06:40;;;;;;;15.07;4.53;;;14.00;99.90;;;;;;4991564;28;20066;-54
2022/05/28 06:09:06;;;;;;;11.82;3.90;;;14.10;99.90;;;;;;4991474;28;20037;-53
2022/05/28 06:11:32;;;;;;;12.75;4.13;;;14.10;99.90;;;;;;4991664;28;20030;-53
2022/05/28 06:13:58;;;;;;;13.23;4.00;;;14.30;99.90;;;;;;5006192;28;20105;-53
2022/05/28 06:16:23;;;;;;;16.00;4.30;;;14.30;99.90;;;;;;4991631;28;20342;-53
2022/05/28 06:18:49;;;;;;;16.77;4.25;;;14.40;99.90;;;;;;4991327;28;20073;-53
2022/05/28 06:21:15;;;;;;;17.92;4.20;;;14.40;99.90;;;;;;4991327;28;20034;-53
2022/05/28 06:23:41;;;;;;;12.65;3.30;;;14.50;99.90;;;;;;4991205;28;20033;-53
2022/05/28 06:26:08;;;;;;;17.67;4.07;;;14.60;99.90;;;;;;4992621;28;20053;-53
2022/05/28 06:28:34;;;;;;;16.67;4.50;;;14.70;99.90;;;;;;4994988;28;20064;-53
2022/05/28 06:31:05;;;;;;;14.50;3.90;;;14.80;99.90;;;;;;4995231;28;20041;-53
2022/05/28 06:33:31;;;;;;;14.00;3.58;;;15.10;99.90;;;;;;4994888;28;20030;-54
2022/05/28 06:35:58;;;;;;;15.60;4.05;;;15.40;99.90;;;;;;4994547;28;20365;-53
2022/05/28 06:38:24;;;;;;;11.73;2.95;;;15.40;99.90;;;;;;4994807;28;20241;-53
2022/05/28 06:40:50;;;;;;;14.88;3.58;;;15.60;99.90;;;;;;4994825;28;20022;-53
2022/05/28 06:43:16;;;;;;;13.35;3.03;;;16.00;99.90;;;;;;4994894;28;20030;-54
2022/05/28 06:45:41;;;;;;;10.48;2.90;;;16.90;99.90;;;;;;4994553;28;20515;-54
2022/05/28 06:48:07;;;;;;;9.85;3.00;;;18.10;99.90;;;;;;4994403;28;20019;-54
2022/05/28 06:53:18;;;;;;;10.68;2.60;;;20.20;99.90;;;;;;4994668;28;20041;-53
2022/05/28 06:55:43;;;;;;;13.68;2.70;;;20.90;99.90;;;;;;4994657;28;20026;-51
2022/05/28 06:58:09;;;;;;;11.98;2.92;;;21.40;99.90;;;;;;4994929;28;20387;-52
2022/05/28 07:00:36;;;;;;;12.40;2.90;;;22.20;98.90;;;;;;4994434;28;20505;-52
2022/05/28 07:03:02;;;;;;;8.75;2.53;;;21.60;99.70;;;;;;4994240;28;20023;-55
2022/05/28 07:05:31;;;;;;;9.25;2.58;;;21.80;98.70;;;;;;4994028;28;20041;-52
2022/05/28 07:07:57;;;;;;;8.75;2.05;;;20.90;99.30;;;;;;4994552;28;20435;-53
2022/05/28 07:10:23;;;;;;;9.85;2.55;;;20.90;99.20;;;;;;4993257;28;20262;-53
2022/05/28 07:12:48;;;;;;;9.77;2.40;;;21.60;98.20;;;;;;4993752;28;20022;-53
2022/05/28 07:15:14;;;;;;;8.98;2.55;;;21.70;97.60;;;;;;4994439;28;20034;-53
2022/05/28 07:17:43;;;;;;;8.50;2.10;;;21.20;98.20;;;;;;4994679;28;20105;-53
2022/05/28 07:20:10;;;;;;;10.43;3.00;;;21.30;97.60;;;;;;4994565;28;20023;-54
2022/05/28 07:22:35;;;;;;;11.05;2.67;;;20.80;98.30;;;;;;4994202;28;20479;-53
2022/05/28 07:25:01;;;;;;;9.70;2.55;;;19.80;99.40;;;;;;4993840;28;20101;-53
2022/05/28 07:27:27;;;;;;;10.98;2.55;;;19.20;99.90;;;;;;4993591;28;20109;-53
2022/05/28 07:29:57;;;;;;;10.27;2.75;;;18.60;99.90;;;;;;4993969;28;20109;-53
2022/05/28 07:32:25;;;;;;;13.88;2.47;;;18.10;99.90;;;;;;4992420;28;20058;-54
2022/05/28 07:34:51;;;;;;;9.93;2.58;;;17.90;99.90;;;;;;4992722;28;20023;-54
2022/05/28 07:37:17;;;;;;;10.07;2.15;;;17.70;99.90;;;;;;4992535;28;20030;-53
2022/05/28 07:39:43;;;;;;;11.90;2.75;;;17.20;99.90;;;;;;4993374;28;20030;-53
2022/05/28 07:42:09;;;;;;;11.85;2.50;;;16.90;99.90;;;;;;4993468;28;20118;-54
2022/05/28 07:44:35;;;;;;;11.02;2.60;;;16.80;99.90;;;;;;4993428;28;20101;-54
2022/05/28 07:47:05;;;;;;;10.18;2.38;;;16.70;99.90;;;;;;4993641;28;20022;-54
2022/05/28 07:49:31;;;;;;;12.27;2.72;;;16.90;99.90;;;;;;4993889;28;20534;-54
2022/05/28 07:51:56;;;;;;;8.73;2.20;;;17.60;99.90;;;;;;4993548;28;20050;-54
2022/05/28 07:54:22;;;;;;;8.70;2.25;;;18.40;99.90;;;;;;4993462;28;20036;-54
2022/05/28 07:56:48;;;;;;;13.75;2.33;;;19.20;99.90;;;;;;4993003;28;20030;-55
2022/05/28 07:59:14;;;;;;;15.85;2.80;;;19.50;99.90;;;;;;4993161;28;20015;-54
2022/05/28 08:01:40;;;;;;;14.20;2.60;;;18.70;99.90;;;;;;4993293;28;20041;-54
2022/05/28 08:04:06;;;;;;;10.30;2.13;;;18.10;99.90;;;;;;4992989;28;20022;-54
2022/05/28 08:06:32;;;;;;;7.25;1.92;;;18.00;99.90;;;;;;4992791;28;20033;-54
2022/05/28 08:08:59;;;;;;;9.80;2.10;;;17.90;99.90;;;;;;4993113;28;20415;-54
2022/05/28 08:11:25;;;;;;;8.80;2.08;;;18.00;99.90;;;;;;4993354;28;20033;-54
2022/05/28 08:13:51;;;;;;;13.18;1.95;;;17.90;99.90;;;;;;4992558;28;20077;-54
2022/05/28 08:16:18;;;;;;;8.38;1.95;;;17.90;99.90;;;;;;4992989;28;20268;-53
2022/05/28 08:18:43;;;;;;;11.32;2.00;;;17.70;99.90;;;;;;4992589;28;20066;-54
2022/05/28 08:23:54;;;;;;;8.00;1.75;;;17.30;99.90;;;;;;5005418;28;20030;-54
2022/05/28 08:26:21;;;;;;;8.57;1.80;;;17.20;99.90;;;;;;4992721;28;20034;-53
2022/05/28 08:28:49;;;;;;;6.57;1.48;;;17.30;99.90;;;;;;4992283;28;20084;-53
2022/05/28 08:31:15;;;;;;;5.15;1.50;;;17.10;99.90;;;;;;4993102;28;20101;-53
2022/05/28 08:33:42;;;;;;;7.43;1.67;;;17.30;99.90;;;;;;4992464;28;20487;-53
2022/05/28 08:36:08;;;;;;;6.15;1.60;;;18.40;99.90;;;;;;4992459;28;20022;-53
2022/05/28 08:38:36;;;;;;;9.32;1.70;;;19.20;99.90;;;;;;4992641;28;20396;-53
2022/05/28 08:41:14;;;;;;;5.45;1.40;;;19.00;99.90;;;;;;4992917;28;20026;-53
2022/05/28 08:43:46;;;;;;;7.40;1.70;;;18.70;99.90;;;;;;4991934;28;20165;-53
2022/05/28 08:46:14;;;;;;;5.45;1.02;;;18.60;99.90;;;;;;4992667;28;20061;-53
2022/05/28 08:48:48;;;;;;;6.63;1.50;;;18.00;99.90;;;;;;4992429;28;20354;-53
2022/05/28 08:51:37;;;;;;;7.13;1.23;;;18.10;99.90;;;;;;4992296;28;20031;-53
2022/05/28 08:54:24;;;;;;;6.38;1.50;;;18.10;99.90;;;;;;4991251;28;20034;-53
2022/05/28 08:56:53;;;;;;;8.05;1.75;;;18.10;99.90;;;;;;4992402;28;20121;-53
2022/05/28 08:59:28;;;;;;;5.50;1.10;;;18.40;99.90;;;;;;4991949;28;20026;-53
2022/05/28 09:01:55;;;;;;;6.97;1.48;;;18.90;99.90;;;;;;4992179;28;20061;-53
2022/05/28 09:04:31;;;;;;;8.75;1.77;;;18.90;99.90;;;;;;4992239;28;20487;-53
2022/05/28 09:07:03;;;;;;;8.48;1.35;;;18.90;99.90;;;;;;4992606;28;20014;-54
2022/05/28 09:09:42;;;;;;;6.57;1.40;;;18.50;99.90;;;;;;4991936;28;20042;-53
2022/05/28 09:12:15;;;;;;;4.43;1.30;;;18.20;99.90;;;;;;4990882;28;20472;-54
2022/05/28 09:14:41;;;;;;;9.05;1.30;;;18.20;99.90;;;;;;4990589;28;20085;-54
2022/05/28 09:17:32;;;;;;;4.20;1.00;;;17.90;99.90;;;;;;4991774;28;20038;-54
2022/05/28 09:20:07;;;;;;;7.13;1.30;;;17.90;99.90;;;;;;4991777;28;20074;-53
2022/05/28 09:22:34;;;;;;;4.28;1.13;;;19.10;99.90;;;;;;4990686;28;20101;-57
2022/05/28 09:24:59;;;;;;;5.18;1.20;;;19.40;99.90;;;;;;4990327;28;20031;-54
2022/05/28 09:27:34;;;;;;;6.38;1.25;;;18.90;98.90;;;;;;4991434;28;20042;-54
2022/05/28 09:30:28;;;;;;;9.98;1.33;;;18.70;99.90;;;;;;4991903;28;20030;-54
2022/05/28 09:33:12;;;;;;;5.20;1.23;;;18.10;99.90;;;;;;4991666;28;20519;-53
2022/05/28 09:36:02;;;;;;;5.65;1.25;;;18.80;99.90;;;;;;4990332;28;20041;-53
2022/05/28 09:38:56;;;;;;;6.88;1.25;;;19.20;99.10;;;;;;4991827;28;20388;-54
2022/05/28 09:42:13;;;;;;;4.30;1.30;;;18.70;98.80;;;;;;4992198;28;20030;-54
2022/05/28 09:44:56;;;;;;;3.08;1.00;;;18.20;99.90;;;;;;5001100;28;20026;-54
2022/05/28 09:47:21;;;;;;;3.75;0.85;;;19.10;99.60;;;;;;4991547;28;20030;-54
2022/05/28 09:49:53;;;;;;;3.28;1.00;;;20.30;96.50;;;;;;4991533;28;20686;-54
2022/05/28 09:52:28;;;;;;;4.32;0.90;;;20.60;96.10;;;;;;4991397;28;20502;-54
2022/05/28 09:55:18;;;;;;;6.38;1.15;;;20.80;93.80;;;;;;4991522;28;20452;-54
2022/05/28 09:58:16;;;;;;;4.60;0.90;;;21.60;92.60;;;;;;4991952;28;20101;-54
2022/05/28 10:00:43;;;;;;;5.07;0.90;;;22.60;91.20;;;;;;4996848;28;20117;-52
2022/05/28 10:05:57;;;;;;;7.35;1.02;;;23.30;85.70;;;;;;4995273;28;20044;-54
2022/05/28 10:08:31;;;;;;;5.68;1.00;;;22.30;86.20;;;;;;4995071;28;20124;-54
2022/05/28 10:11:02;;;;;;;5.75;0.90;;;21.60;88.80;;;;;;4995616;28;20037;-54
2022/05/28 10:13:30;;;;;;;2.85;0.90;;;21.70;89.20;;;;;;4995306;28;20503;-54
2022/05/28 10:15:59;;;;;;;4.20;0.80;;;22.30;88.00;;;;;;4994973;28;20019;-53
2022/05/28 10:18:36;;;;;;;1.88;0.60;;;23.10;85.20;;;;;;4994898;28;20035;-53
2022/05/28 10:21:09;;;;;;;6.85;1.85;;;23.40;82.20;;;;;;4995216;28;20014;-53
2022/05/28 10:23:37;;;;;;;4.53;1.00;;;23.80;83.20;;;;;;4995242;28;20517;-53
2022/05/28 10:26:03;;;;;;;5.32;1.08;;;23.30;83.30;;;;;;4995036;28;20401;-53
2022/05/28 10:28:31;;;;;;;4.43;1.00;;;21.60;89.60;;;;;;4994995;28;20574;-53
2022/05/28 10:30:58;;;;;;;5.65;1.30;;;20.90;90.80;;;;;;4995188;28;20031;-54
2022/05/28 10:33:30;;;;;;;4.90;1.02;;;20.60;91.50;;;;;;4994579;28;20415;-53
2022/05/28 10:36:07;;;;;;;4.43;1.13;;;20.30;91.00;;;;;;4994675;28;20096;-54
2022/05/28 10:38:32;;;;;;;3.25;0.75;;;20.50;90.40;;;;;;4994721;28;20026;-54
2022/05/28 10:41:12;;;;;;;4.70;0.80;;;21.90;87.90;;;;;;4995070;28;20040;-54
2022/05/28 10:43:39;;;;;;;5.82;0.98;;;22.80;85.30;;;;;;4995268;28;20033;-54
2022/05/28 10:46:13;;;;;;;1.90;0.90;;;22.40;81.50;;;;;;4994989;28;20080;-54
2022/05/28 10:48:51;;;;;;;4.22;0.70;;;22.30;81.40;;;;;;4994698;28;20034;-54
2022/05/28 10:51:16;;;;;;;3.88;0.80;;;22.30;80.50;;;;;;4995005;28;20125;-54
2022/05/28 10:54:06;;;;;;;4.10;1.00;;;22.90;80.70;;;;;;4995082;28;20454;-54
2022/05/28 10:56:46;;;;;;;3.83;0.77;;;23.40;80.10;;;;;;4994983;28;20026;-55
2022/05/28 10:59:45;;;;;;;2.20;0.70;;;22.90;81.00;;;;;;4994674;28;20436;-54
2022/05/28 11:02:32;;;;;;;3.15;1.08;;;22.20;82.60;;;;;;4994379;28;20033;-54
2022/05/28 11:05:36;;;;;;;10.18;0.95;;;22.50;82.50;;;;;;4994486;28;20022;-54
2022/05/28 11:08:23;;;;;;;2.72;0.90;;;23.20;78.80;;;;;;4994788;28;20659;-54
2022/05/28 11:11:15;;;;;;;2.90;0.93;;;23.80;77.70;;;;;;4993778;28;20022;-54
2022/05/28 11:13:59;;;;;;;3.72;1.00;;;23.30;77.70;;;;;;4993917;28;20046;-54
2022/05/28 11:16:47;;;;;;;4.50;0.98;;;21.50;82.20;;;;;;4994215;28;20507;-54
2022/05/28 11:19:46;;;;;;;3.05;1.08;;;20.60;82.10;;;;;;4994407;28;20031;-54
2022/05/28 11:22:33;;;;;;;5.40;1.30;;;19.90;84.30;;;;;;4994083;28;20041;-54
2022/05/28 11:25:13;;;;;;;4.60;1.00;;;20.60;84.90;;;;;;4993988;28;20105;-54
2022/05/28 11:28:20;;;;;;;3.35;0.77;;;21.70;81.30;;;;;;4993683;28;20022;-54
2022/05/28 11:30:50;;;;;;;4.20;0.90;;;21.20;81.70;;;;;;4994988;28;20026;-54
2022/05/28 11:33:37;;;;;;;4.97;1.13;;;20.70;83.40;;;;;;4996222;28;20113;-53
2022/05/28 11:36:12;;;;;;;3.85;0.90;;;20.80;82.00;;;;;;4993681;28;20041;-53
2022/05/28 11:39:02;;;;;;;4.10;0.85;;;20.80;83.90;;;;;;5008476;28;20420;-53
2022/05/28 11:41:33;;;;;;;4.50;1.00;;;20.50;85.40;;;;;;4993733;28;20112;-53
2022/05/28 11:44:28;;;;;;;7.78;1.15;;;20.00;84.60;;;;;;4992330;28;20026;-53
2022/05/28 11:47:02;;;;;;;2.72;0.95;;;20.90;83.00;;;;;;4993514;28;20511;-53
2022/05/28 11:52:30;;;;;;;5.93;1.27;;;24.20;75.90;;;;;;4993639;28;20096;-53
2022/05/28 11:55:08;;;;;;;3.10;0.82;;;24.50;72.70;;;;;;4994050;28;20505;-54
2022/05/28 11:57:52;;;;;;;4.43;0.88;;;24.00;74.10;;;;;;4993063;28;20022;-53
2022/05/28 12:00:21;;;;;;;4.07;0.80;;;24.30;73.70;;;;;;4993383;28;20028;-53
2022/05/28 12:02:56;;;;;;;3.65;1.00;;;24.10;71.50;;;;;;4993009;28;20545;-53
2022/05/28 12:05:24;;;;;;;5.10;1.02;;;24.10;72.70;;;;;;4993256;28;20053;-54
2022/05/28 12:08:02;;;;;;;3.95;0.90;;;24.60;71.00;;;;;;4992772;28;20038;-53
2022/05/28 12:10:46;;;;;;;4.05;0.90;;;24.90;70.30;;;;;;5007979;28;20101;-53
2022/05/28 12:13:34;;;;;;;3.10;0.90;;;25.30;68.30;;;;;;4993169;28;20077;-53
2022/05/28 12:16:12;;;;;;;3.08;1.00;;;23.60;68.40;;;;;;4992879;28;20088;-53
2022/05/28 12:18:42;;;;;;;5.07;1.02;;;22.10;72.50;;;;;;4993144;28;20022;-53
2022/05/28 12:21:08;;;;;;;2.60;0.77;;;22.40;74.90;;;;;;4993275;28;20022;-53
2022/05/28 12:23:43;;;;;;;1.98;0.90;;;23.30;72.70;;;;;;4992452;28;20023;-53
2022/05/28 12:26:47;;;;;;;4.90;0.88;;;23.90;70.80;;;;;;4992643;28;20458;-53
2022/05/28 12:29:32;;;;;;;3.40;0.90;;;23.30;70.70;;;;;;4992672;28;20057;-54
2022/05/28 12:32:18;;;;;;;3.08;0.80;;;22.90;73.10;;;;;;4992723;28;20045;-54
2022/05/28 12:35:01;;;;;;;4.85;0.90;;;24.00;71.50;;;;;;5006986;28;20023;-54
2022/05/28 12:37:38;;;;;;;2.70;0.80;;;22.30;72.80;;;;;;4992600;28;20125;-54
2022/05/28 12:40:04;;;;;;;4.72;1.05;;;22.30;72.70;;;;;;4993304;28;20022;-54
2022/05/28 12:42:30;;;;;;;4.57;0.75;;;22.40;72.50;;;;;;4992640;28;20030;-54
2022/05/28 12:45:09;;;;;;;3.55;0.73;;;22.30;73.30;;;;;;4992646;28;20022;-54
2022/05/28 12:47:34;;;;;;;6.70;0.90;;;21.70;74.70;;;;;;4992404;28;20093;-54
2022/05/28 12:50:27;;;;;;;7.63;1.00;;;22.50;74.40;;;;;;4992568;28;20061;-54
2022/05/28 12:53:07;;;;;;;4.57;0.80;;;22.50;73.20;;;;;;4992502;28;20434;-54
2022/05/28 12:55:38;;;;;;;3.10;0.73;;;22.00;72.80;;;;;;4992449;28;20026;-53
2022/05/28 12:58:33;;;;;;;4.22;1.10;;;20.90;76.00;;;;;;4992358;28;20498;-54
2022/05/28 13:01:04;;;;;;;3.38;0.80;;;20.10;76.40;;;;;;4992253;28;20038;-53
2022/05/28 13:03:41;;;;;;;3.08;1.08;;;21.10;75.60;;;;;;4992225;28;20449;-53
2022/05/28 13:06:19;;;;;;;3.95;0.85;;;22.20;73.20;;;;;;4991967;28;20606;-54
2022/05/28 13:08:54;;;;;;;6.10;0.85;;;23.10;71.10;;;;;;4992311;28;20426;-54
2022/05/28 13:11:36;;;;;;;5.45;1.10;;;22.70;70.10;;;;;;4992377;28;20030;-53
2022/05/28 13:14:32;;;;;;;3.97;0.70;;;22.00;71.90;;;;;;4991800;28;20057;-53